Time;durP1;ratioP1;P1;durP2;ratioP2;P2;SDS_P1;SDS_P2;PMS_P1;PMS_P2;Temp;Humidity;BMP_temperature;BMP_pressure;BME280_temperature;BME280_humidity;BME280_pressure;Samples;Min_cycle;Max_cycle;Signal;HPM_P1;HPM_P2
2023/06/28 00:00:05;;;;;;;19.20;7.63;;;;;;;23.65;46.37;100227.50;4997529;28;20034;-89
2023/06/28 00:02:35;;;;;;;10.95;6.50;;;;;;;23.59;46.34;100216.56;4999118;28;20042;-88
2023/06/28 00:05:04;;;;;;;19.42;6.93;;;;;;;23.60;46.91;100232.84;4965085;28;20051;-88
2023/06/28 00:07:31;;;;;;;26.23;8.43;;;;;;;23.56;47.49;100237.06;4936119;29;20039;-88
2023/06/28 00:09:57;;;;;;;21.13;7.60;;;;;;;23.51;48.35;100234.16;4950967;29;20051;-85
2023/06/28 00:12:23;;;;;;;21.52;6.60;;;;;;;23.56;49.33;100226.09;4952371;29;20023;-85
2023/06/28 00:14:48;;;;;;;15.02;6.03;;;;;;;23.37;50.42;100206.91;4952397;29;20039;-85
2023/06/28 00:17:15;;;;;;;12.18;5.68;;;;;;;23.27;51.29;100201.91;4953849;29;20146;-87
2023/06/28 00:19:47;;;;;;;29.50;6.35;;;;;;;23.44;51.66;100236.06;4974892;28;20122;-90
2023/06/28 00:22:16;;;;;;;16.70;6.18;;;;;;;23.23;51.89;100207.00;4976896;28;20097;-86
2023/06/28 00:24:41;;;;;;;21.10;5.55;;;;;;;23.19;52.70;100218.59;4962190;28;20059;-85
2023/06/28 00:27:07;;;;;;;14.60;5.78;;;;;;;23.34;52.58;100232.91;4961208;29;20069;-87
2023/06/28 00:29:32;;;;;;;9.95;6.40;;;;;;;23.16;52.68;100222.63;4949312;28;20424;-87
2023/06/28 00:31:58;;;;;;;12.00;5.40;;;;;;;23.19;53.02;100232.31;4950262;29;20031;-87
2023/06/28 00:34:23;;;;;;;16.92;5.35;;;;;;;23.12;52.83;100224.09;4933885;28;20035;-87
2023/06/28 00:36:49;;;;;;;11.95;6.65;;;;;;;23.21;52.33;100220.06;4967658;28;20038;-87
2023/06/28 00:39:14;;;;;;;21.50;6.05;;;;;;;23.19;52.09;100221.34;4971201;28;20030;-86
2023/06/28 00:41:40;;;;;;;19.75;5.72;;;;;;;23.12;52.66;100223.25;4972270;28;20414;-88
2023/06/28 00:44:06;;;;;;;20.73;5.75;;;;;;;23.04;52.92;100229.84;4970678;28;20463;-86
2023/06/28 00:46:35;;;;;;;18.15;6.30;;;;;;;23.07;52.59;100234.06;4953565;28;20037;-87
2023/06/28 00:49:01;;;;;;;11.70;5.55;;;;;;;23.09;52.21;100215.47;4970557;28;20495;-87
2023/06/28 00:51:29;;;;;;;14.77;6.28;;;;;;;22.97;52.70;100212.56;4970565;28;20067;-84
2023/06/28 00:53:56;;;;;;;9.60;5.57;;;;;;;23.04;52.39;100199.66;4970685;28;20034;-86
2023/06/28 00:56:24;;;;;;;16.10;6.38;;;;;;;23.15;52.30;100215.44;4971240;28;20026;-84
2023/06/28 00:58:50;;;;;;;14.27;6.45;;;;;;;22.95;52.10;100179.03;4979214;28;20039;-85
2023/06/28 01:01:17;;;;;;;12.50;5.45;;;;;;;23.24;51.93;100213.28;4983764;28;20030;-84
2023/06/28 01:03:42;;;;;;;14.38;6.15;;;;;;;23.04;51.78;100179.63;4960030;28;20030;-85
2023/06/28 01:06:12;;;;;;;19.42;6.40;;;;;;;23.04;52.42;100190.59;4955108;28;20105;-84
2023/06/28 01:08:42;;;;;;;9.30;5.63;;;;;;;23.16;52.21;100210.81;4979623;28;20042;-87
2023/06/28 01:11:09;;;;;;;12.82;6.28;;;;;;;23.06;52.65;100207.66;4988506;28;20098;-85
2023/06/28 01:13:37;;;;;;;15.55;6.00;;;;;;;23.04;52.91;100201.56;4978373;28;20030;-86
2023/06/28 01:16:03;;;;;;;12.98;6.28;;;;;;;22.94;53.27;100191.03;4993617;28;20071;-89
2023/06/28 01:18:29;;;;;;;14.02;6.32;;;;;;;23.09;53.87;100204.50;4995802;28;20011;-85
2023/06/28 01:20:55;;;;;;;12.88;6.65;;;;;;;23.07;53.91;100201.13;4979435;28;20023;-87
2023/06/28 01:23:27;;;;;;;17.20;6.78;;;;;;;22.91;53.75;100193.38;4972654;28;20327;-85
2023/06/28 01:25:55;;;;;;;20.75;5.75;;;;;;;22.82;54.02;100181.78;4984456;28;20101;-86
2023/06/28 01:28:21;;;;;;;14.07;6.05;;;;;;;22.71;54.02;100177.81;4971382;28;20030;-86
2023/06/28 01:30:48;;;;;;;24.10;5.75;;;;;;;22.90;54.21;100205.41;4970476;28;20117;-86
2023/06/28 01:33:17;;;;;;;12.98;5.90;;;;;;;22.69;54.38;100181.81;4971095;28;20050;-87
2023/06/28 01:35:42;;;;;;;19.33;6.07;;;;;;;22.84;54.28;100207.13;4970704;28;20031;-85
2023/06/28 01:38:09;;;;;;;21.95;6.45;;;;;;;22.78;54.26;100192.34;4971278;28;20034;-86
2023/06/28 01:40:36;;;;;;;17.25;7.03;;;;;;;22.87;54.18;100200.34;4970342;28;20031;-86
2023/06/28 01:43:06;;;;;;;14.32;6.18;;;;;;;22.83;54.04;100193.59;4970267;28;20089;-86
2023/06/28 01:45:35;;;;;;;20.88;6.20;;;;;;;22.86;54.21;100204.16;4971353;28;20037;-85
2023/06/28 01:48:01;;;;;;;33.33;7.75;;;;;;;22.80;54.34;100189.41;4970837;28;20023;-84
2023/06/28 01:50:28;;;;;;;16.95;6.85;;;;;;;22.78;54.73;100200.56;4971452;28;20436;-85
2023/06/28 01:52:57;;;;;;;27.63;6.75;;;;;;;22.74;54.71;100193.84;4970759;28;20084;-86
2023/06/28 01:55:22;;;;;;;22.42;7.40;;;;;;;22.66;55.29;100202.28;4971230;28;20042;-85
2023/06/28 01:57:48;;;;;;;16.63;7.50;;;;;;;22.63;55.25;100207.31;4970890;28;20034;-85
2023/06/28 02:00:15;;;;;;;17.75;6.18;;;;;;;22.74;55.11;100217.69;4970748;28;20062;-86
2023/06/28 02:02:40;;;;;;;13.23;5.57;;;;;;;22.70;55.11;100211.78;4971102;28;20038;-85
2023/06/28 02:05:06;;;;;;;13.23;5.85;;;;;;;22.67;54.80;100206.72;4974634;28;20029;-86
2023/06/28 02:07:32;;;;;;;12.95;5.55;;;;;;;22.53;55.15;100194.06;4977207;28;20023;-90
2023/06/28 02:09:57;;;;;;;19.13;7.32;;;;;;;22.50;55.54;100197.22;4978163;28;20060;-88
2023/06/28 02:12:23;;;;;;;15.02;6.72;;;;;;;22.59;55.70;100209.66;4998276;28;20042;-92
2023/06/28 02:14:51;;;;;;;18.95;6.35;;;;;;;22.57;55.59;100203.53;4997282;28;20622;-89
2023/06/28 02:17:20;;;;;;;18.88;6.70;;;;;;;22.60;55.47;100203.09;4977854;28;20035;-87
2023/06/28 02:19:47;;;;;;;23.58;6.60;;;;;;;22.55;55.60;100191.09;4973959;28;20081;-86
2023/06/28 02:22:14;;;;;;;17.08;5.53;;;;;;;22.65;55.30;100203.34;4975696;28;20728;-86
2023/06/28 02:24:39;;;;;;;29.02;7.55;;;;;;;22.62;55.25;100187.31;4974600;28;20037;-84
2023/06/28 02:27:05;;;;;;;21.05;6.32;;;;;;;22.68;55.13;100196.59;4973451;28;20030;-86
2023/06/28 02:29:30;;;;;;;19.52;7.93;;;;;;;22.64;55.27;100200.78;4972585;28;20027;-85
2023/06/28 02:31:57;;;;;;;13.63;6.43;;;;;;;22.68;54.81;100202.94;4973140;28;20055;-85
2023/06/28 02:34:23;;;;;;;18.65;8.00;;;;;;;22.56;54.86;100188.16;4972608;28;20031;-85
2023/06/28 02:36:48;;;;;;;18.83;6.43;;;;;;;22.64;54.52;100198.88;4972748;28;20031;-85
2023/06/28 02:39:13;;;;;;;68.63;12.63;;;;;;;22.75;54.30;100198.25;4973118;28;20027;-86
2023/06/28 02:41:39;;;;;;;39.00;9.73;;;;;;;22.73;53.15;100196.78;4955569;28;20419;-87
2023/06/28 02:44:05;;;;;;;21.95;6.75;;;;;;;22.71;53.38;100191.53;4973226;28;20023;-85
2023/06/28 02:46:30;;;;;;;15.43;6.18;;;;;;;22.84;53.10;100198.91;4973678;28;20057;-86
2023/06/28 02:48:56;;;;;;;12.00;5.82;;;;;;;22.81;52.98;100184.75;4973281;28;20046;-86
2023/06/28 02:51:21;;;;;;;11.30;6.60;;;;;;;22.88;53.01;100196.53;4973209;28;20019;-85
2023/06/28 02:53:47;;;;;;;21.58;7.03;;;;;;;22.69;53.49;100171.69;4973390;28;20031;-86
2023/06/28 02:56:15;;;;;;;12.55;6.72;;;;;;;22.78;53.72;100186.84;4973347;28;20117;-87
2023/06/28 02:58:43;;;;;;;17.98;6.18;;;;;;;22.86;53.83;100195.91;4973805;28;20035;-87
2023/06/28 03:01:09;;;;;;;22.48;6.47;;;;;;;22.84;53.79;100196.16;4975405;28;20033;-87
2023/06/28 03:03:36;;;;;;;13.75;6.22;;;;;;;22.86;53.65;100195.91;4976414;28;20104;-85
2023/06/28 03:06:02;;;;;;;16.27;6.05;;;;;;;22.95;53.58;100208.34;4975550;28;20053;-86
2023/06/28 03:08:27;;;;;;;21.42;6.60;;;;;;;22.96;53.27;100194.44;4985956;28;20027;-80
2023/06/28 03:10:53;;;;;;;24.42;7.45;;;;;;;22.97;53.54;100189.75;4988258;28;20062;-81
2023/06/28 03:13:18;;;;;;;26.25;8.45;;;;;;;22.99;53.15;100195.91;4979748;28;20030;-86
2023/06/28 03:15:43;;;;;;;21.58;8.02;;;;;;;22.86;53.04;100172.09;4954518;28;20714;-87
2023/06/28 03:18:09;;;;;;;13.38;7.90;;;;;;;23.00;52.97;100203.88;4972150;28;20458;-89
2023/06/28 03:20:34;;;;;;;22.30;8.13;;;;;;;23.02;53.22;100195.47;4955101;28;20030;-88
2023/06/28 03:23:03;;;;;;;25.00;7.95;;;;;;;22.83;53.25;100155.22;4956000;28;20054;-85
2023/06/28 03:25:29;;;;;;;31.25;8.93;;;;;;;23.11;53.07;100180.44;4956389;28;20031;-87
2023/06/28 03:27:57;;;;;;;24.58;8.02;;;;;;;23.14;52.97;100191.00;4973834;28;20034;-83
2023/06/28 03:30:23;;;;;;;22.60;7.95;;;;;;;23.15;53.06;100198.13;4984280;28;20050;-91
2023/06/28 03:32:49;;;;;;;14.63;7.43;;;;;;;23.17;52.76;100193.28;4963225;28;20042;-84
2023/06/28 03:35:14;;;;;;;18.92;8.98;;;;;;;23.18;52.80;100183.97;4970331;28;20023;-83
2023/06/28 03:37:47;;;;;;;34.60;9.30;;;;;;;23.28;52.25;100198.94;4970669;28;20082;-80
2023/06/28 03:40:14;;;;;;;18.33;8.20;;;;;;;23.25;52.13;100195.78;4970541;28;20089;-78
2023/06/28 03:42:40;;;;;;;39.30;9.38;;;;;;;23.43;51.85;100201.44;4971284;28;20179;-82
2023/06/28 03:45:06;;;;;;;29.67;9.10;;;;;;;23.43;51.89;100184.97;4953444;28;20088;-79
2023/06/28 03:47:31;;;;;;;30.20;8.93;;;;;;;23.40;51.23;100174.41;4970366;28;20031;-78
2023/06/28 03:49:57;;;;;;;25.58;8.45;;;;;;;23.58;51.14;100192.91;4972353;28;20038;-81
2023/06/28 03:52:22;;;;;;;32.42;9.07;;;;;;;23.61;50.93;100203.44;4971491;28;20545;-79
2023/06/28 03:54:48;;;;;;;26.88;8.15;;;;;;;23.70;50.53;100196.63;4974034;28;20027;-80
2023/06/28 03:57:13;;;;;;;21.17;7.95;;;;;;;23.52;50.48;100166.34;4973632;28;20037;-80
2023/06/28 03:59:38;;;;;;;83.63;15.55;;;;;;;23.80;50.33;100203.34;4973642;28;20035;-80
2023/06/28 04:02:04;;;;;;;34.35;9.98;;;;;;;23.79;50.07;100179.69;4975837;28;20499;-90
2023/06/28 04:04:30;;;;;;;34.63;10.23;;;;;;;23.97;49.54;100198.19;4959884;28;20052;-80
2023/06/28 04:06:55;;;;;;;24.35;8.57;;;;;;;24.01;49.53;100193.91;4978905;28;20061;-81
2023/06/28 04:09:21;;;;;;;18.35;8.93;;;;;;;24.05;49.18;100194.31;4975397;28;20045;-81
2023/06/28 04:11:46;;;;;;;29.85;9.75;;;;;;;23.96;49.50;100173.66;4970136;28;20038;-80
2023/06/28 04:14:11;;;;;;;30.77;10.35;;;;;;;24.13;49.25;100196.78;4969727;28;20031;-83
2023/06/28 04:16:37;;;;;;;27.50;9.75;;;;;;;24.20;49.20;100195.69;4970006;28;20034;-80
2023/06/28 04:19:04;;;;;;;22.45;10.15;;;;;;;24.26;49.56;100196.69;4955006;28;20047;-80
2023/06/28 04:21:30;;;;;;;29.27;11.18;;;;;;;24.34;49.10;100199.19;4970192;28;20487;-82
2023/06/28 04:23:55;;;;;;;32.90;10.13;;;;;;;24.40;49.05;100202.94;4970826;28;20090;-78
2023/06/28 04:26:21;;;;;;;27.85;10.35;;;;;;;24.47;49.12;100188.06;4973074;28;20038;-80
2023/06/28 04:28:46;;;;;;;27.13;12.20;;;;;;;24.55;48.92;100200.69;4971372;28;20623;-80
2023/06/28 04:31:12;;;;;;;35.33;11.95;;;;;;;24.65;48.87;100201.84;4991978;28;20023;-84
2023/06/28 04:33:37;;;;;;;38.22;11.25;;;;;;;24.70;48.79;100191.03;4994081;28;20090;-86
2023/06/28 04:36:03;;;;;;;24.08;11.45;;;;;;;24.83;48.40;100198.31;4994261;28;20091;-91
2023/06/28 04:38:32;;;;;;;28.77;10.52;;;;;;;24.91;48.21;100200.78;4990109;28;20027;-90
2023/06/28 04:40:58;;;;;;;23.20;10.27;;;;;;;24.89;48.24;100178.97;4968212;28;20045;-82
2023/06/28 04:43:24;;;;;;;24.65;10.48;;;;;;;25.10;48.39;100196.13;4988317;28;20011;-90
2023/06/28 04:45:49;;;;;;;40.88;10.18;;;;;;;25.14;48.08;100208.31;4972576;28;20109;-80
2023/06/28 04:48:15;;;;;;;25.88;9.45;;;;;;;25.16;47.85;100189.69;4971487;28;20033;-81
2023/06/28 04:50:41;;;;;;;41.50;12.07;;;;;;;25.24;48.01;100190.22;4970693;28;20678;-80
2023/06/28 04:53:07;;;;;;;30.67;9.85;;;;;;;25.36;47.93;100193.88;4970136;28;20034;-81
2023/06/28 04:55:34;;;;;;;33.22;9.38;;;;;;;25.44;47.84;100201.81;4971046;28;20477;-81
2023/06/28 04:58:05;;;;;;;27.38;8.82;;;;;;;25.53;47.77;100207.03;4970914;28;20179;-81
2023/06/28 05:00:32;;;;;;;33.25;8.93;;;;;;;25.60;47.63;100205.88;4970275;28;20368;-78
2023/06/28 05:03:00;;;;;;;45.03;9.75;;;;;;;25.67;47.76;100208.53;4974302;28;20407;-79
2023/06/28 05:05:26;;;;;;;29.23;8.50;;;;;;;25.63;47.77;100199.88;4975466;28;20475;-81
2023/06/28 05:07:53;;;;;;;26.45;8.35;;;;;;;25.76;47.88;100218.16;4969274;28;20039;-80
2023/06/28 05:10:23;;;;;;;30.10;7.88;;;;;;;25.82;47.86;100209.78;4934562;28;20042;-83
2023/06/28 05:12:52;;;;;;;44.00;10.15;;;;;;;25.86;47.72;100211.03;4969400;28;20034;-80
2023/06/28 05:15:19;;;;;;;43.45;10.48;;;;;;;25.96;47.55;100222.28;4969194;28;20862;-81
2023/06/28 05:17:45;;;;;;;28.80;8.07;;;;;;;26.01;47.39;100212.50;4969891;28;20542;-81
2023/06/28 05:20:10;;;;;;;26.40;7.60;;;;;;;25.95;47.04;100208.75;4970361;28;20158;-86
2023/06/28 05:22:49;;;;;;;24.92;7.53;;;;;;;26.11;47.07;100212.75;4969611;28;20510;-83
2023/06/28 05:25:15;;;;;;;59.60;8.30;;;;;;;26.21;46.98;100208.38;4972431;28;20073;-89
2023/06/28 05:27:41;;;;;;;22.17;7.45;;;;;;;26.31;46.72;100210.56;4973154;28;20055;-89
2023/06/28 05:30:10;;;;;;;33.85;9.13;;;;;;;26.20;46.46;100178.28;4972728;28;20140;-85
2023/06/28 05:32:35;;;;;;;26.23;9.30;;;;;;;26.37;45.98;100213.19;4971478;28;20041;-83
2023/06/28 05:35:02;;;;;;;58.97;11.27;;;;;;;26.47;46.12;100201.59;4969451;28;20027;-86
2023/06/28 05:37:28;;;;;;;18.67;7.28;;;;;;;26.59;45.27;100216.22;4969840;28;20118;-81
2023/06/28 05:39:54;;;;;;;22.05;7.35;;;;;;;26.49;44.79;100199.41;4974687;28;20146;-85
2023/06/28 05:42:21;;;;;;;33.38;7.90;;;;;;;26.61;44.83;100208.53;4957414;28;20065;-84
2023/06/28 05:44:47;;;;;;;28.48;8.10;;;;;;;26.62;44.71;100199.19;4974637;28;20414;-84
2023/06/28 05:47:13;;;;;;;23.60;7.68;;;;;;;26.84;43.80;100211.34;4961349;28;20038;-86
2023/06/28 05:49:40;;;;;;;22.17;6.65;;;;;;;26.90;44.06;100207.63;4988443;28;20045;-87
2023/06/28 05:52:06;;;;;;;16.92;6.63;;;;;;;26.88;43.66;100195.16;4981361;28;20031;-83
2023/06/28 05:54:31;;;;;;;15.35;5.90;;;;;;;26.94;43.31;100202.47;4975836;28;20095;-82
2023/06/28 05:56:57;;;;;;;13.77;6.75;;;;;;;26.85;43.29;100182.66;4975565;28;20551;-85
2023/06/28 05:59:23;;;;;;;14.68;5.88;;;;;;;27.07;43.39;100204.09;4991086;28;20093;-81
2023/06/28 06:01:48;;;;;;;24.70;8.98;;;;;;;27.16;43.67;100199.88;4995765;28;20045;-85
2023/06/28 06:04:14;;;;;;;34.47;8.00;;;;;;;27.15;43.28;100187.19;4983775;28;20641;-85
2023/06/28 06:06:39;;;;;;;34.80;8.98;;;;;;;27.21;43.63;100197.25;4988334;28;20422;-84
2023/06/28 06:09:05;;;;;;;28.75;11.40;;;;;;;27.20;44.58;100181.75;4981189;28;20137;-84
2023/06/28 06:11:30;;;;;;;32.65;11.70;;;;;;;27.38;44.98;100198.16;4973247;28;20129;-78
2023/06/28 06:13:56;;;;;;;44.13;12.45;;;;;;;27.40;45.44;100179.44;4971419;28;20023;-77
2023/06/28 06:16:21;;;;;;;35.90;13.27;;;;;;;27.49;45.32;100195.38;4972212;28;20471;-78
2023/06/28 06:18:46;;;;;;;28.63;12.25;;;;;;;27.58;45.60;100193.09;4971594;28;20664;-79
2023/06/28 06:21:12;;;;;;;47.00;14.10;;;;;;;27.66;45.27;100200.97;4972593;28;20030;-81
2023/06/28 06:23:37;;;;;;;42.33;12.63;;;;;;;27.69;45.34;100183.06;4972301;28;20039;-80
2023/06/28 06:26:03;;;;;;;31.55;12.73;;;;;;;27.67;45.05;100183.31;4972552;28;20466;-80
2023/06/28 06:28:28;;;;;;;45.45;13.45;;;;;;;27.73;45.12;100178.72;4971968;28;20031;-81
2023/06/28 06:30:54;;;;;;;32.08;11.55;;;;;;;27.82;45.19;100183.59;4971882;28;20486;-82
2023/06/28 06:33:19;;;;;;;28.58;11.48;;;;;;;27.87;45.11;100186.44;4972610;28;20458;-81
2023/06/28 06:35:44;;;;;;;26.83;11.55;;;;;;;27.92;45.17;100189.28;4971613;28;20468;-82
2023/06/28 06:38:10;;;;;;;31.67;9.95;;;;;;;27.97;45.19;100192.19;4954579;28;20045;-80
2023/06/28 06:40:35;;;;;;;20.55;9.02;;;;;;;28.07;45.07;100189.59;4972051;28;20029;-82
2023/06/28 06:43:01;;;;;;;22.33;9.23;;;;;;;28.06;44.78;100196.25;4971582;28;20689;-78
2023/06/28 06:45:26;;;;;;;22.33;8.77;;;;;;;28.25;44.74;100199.63;4972000;28;20030;-84
2023/06/28 06:47:51;;;;;;;17.50;8.82;;;;;;;28.34;44.48;100191.72;4972422;28;20031;-77
2023/06/28 06:50:18;;;;;;;25.58;9.55;;;;;;;28.38;44.29;100201.19;4956268;28;20518;-79
2023/06/28 06:52:44;;;;;;;14.73;7.13;;;;;;;28.46;44.53;100200.78;4973675;28;20053;-80
2023/06/28 06:55:10;;;;;;;25.92;8.10;;;;;;;28.59;44.09;100197.69;4972289;28;20447;-79
2023/06/28 06:57:35;;;;;;;17.95;7.85;;;;;;;28.59;43.91;100194.91;4971777;28;20066;-81
2023/06/28 07:00:02;;;;;;;17.52;8.18;;;;;;;28.71;43.79;100203.16;4972103;28;20116;-78
2023/06/28 07:02:27;;;;;;;26.92;8.35;;;;;;;28.69;43.91;100181.25;4970806;28;20122;-80
2023/06/28 07:04:53;;;;;;;21.67;7.80;;;;;;;28.74;44.14;100186.88;4970982;28;20122;-77
2023/06/28 07:07:19;;;;;;;13.73;7.57;;;;;;;28.86;44.21;100190.38;4971318;28;20019;-81
2023/06/28 07:09:44;;;;;;;16.70;7.95;;;;;;;28.84;44.38;100181.47;4972093;28;20097;-82
2023/06/28 07:12:10;;;;;;;14.82;7.50;;;;;;;28.92;44.54;100189.34;4971665;28;20022;-79
2023/06/28 07:14:35;;;;;;;29.98;7.90;;;;;;;28.97;44.47;100197.72;4972101;28;20045;-82
2023/06/28 07:17:01;;;;;;;24.90;8.15;;;;;;;29.05;44.33;100200.03;4972010;28;20031;-81
2023/06/28 07:19:26;;;;;;;11.43;6.53;;;;;;;28.99;44.52;100194.72;4971597;28;20073;-82
2023/06/28 07:21:52;;;;;;;22.92;8.50;;;;;;;29.19;44.42;100200.53;4971657;28;20030;-80
2023/06/28 07:24:17;;;;;;;20.92;8.68;;;;;;;29.15;44.61;100183.56;4971847;28;20483;-80
2023/06/28 07:26:42;;;;;;;11.30;7.63;;;;;;;29.24;43.88;100186.75;4971635;28;20029;-79
2023/06/28 07:29:08;;;;;;;10.82;6.47;;;;;;;29.37;44.04;100186.38;4971712;28;20035;-81
2023/06/28 07:31:33;;;;;;;21.98;9.45;;;;;;;29.40;44.17;100187.78;4972138;28;20034;-80
2023/06/28 07:34:04;;;;;;;29.35;7.88;;;;;;;29.59;43.90;100194.69;4971451;28;20050;-75
2023/06/28 07:36:30;;;;;;;16.85;7.15;;;;;;;29.57;43.98;100197.69;4969622;28;20119;-83
2023/06/28 07:38:56;;;;;;;16.92;8.50;;;;;;;29.58;44.15;100193.84;4971300;28;20041;-83
2023/06/28 07:41:21;;;;;;;16.48;8.13;;;;;;;29.66;44.02;100189.78;4970784;28;20031;-79
2023/06/28 07:43:46;;;;;;;13.43;8.18;;;;;;;29.68;44.34;100198.66;4971903;28;20035;-84
2023/06/28 07:46:12;;;;;;;12.77;7.32;;;;;;;29.66;44.00;100195.31;4971873;28;20022;-80
2023/06/28 07:48:37;;;;;;;14.73;7.38;;;;;;;29.66;43.98;100198.09;4971879;28;20223;-85
2023/06/28 07:51:05;;;;;;;16.95;7.43;;;;;;;29.75;44.21;100196.53;4972656;28;20031;-84
2023/06/28 07:53:30;;;;;;;14.55;8.02;;;;;;;29.80;44.00;100184.63;4978448;28;20045;-84
2023/06/28 07:55:56;;;;;;;23.65;7.80;;;;;;;29.89;43.89;100183.09;4984728;28;20022;-86
2023/06/28 07:58:21;;;;;;;21.02;7.97;;;;;;;29.87;43.69;100163.97;4970612;28;20034;-82
2023/06/28 08:00:47;;;;;;;12.75;7.05;;;;;;;30.13;43.30;100178.91;4970152;28;20461;-81
2023/06/28 08:03:12;;;;;;;10.65;6.80;;;;;;;30.20;43.22;100174.81;4970075;28;20019;-79
2023/06/28 08:05:38;;;;;;;17.17;7.70;;;;;;;30.14;42.46;100175.03;4971149;28;20034;-79
2023/06/28 08:08:04;;;;;;;25.63;7.97;;;;;;;30.26;42.68;100172.06;4969967;28;20114;-80
2023/06/28 08:10:29;;;;;;;17.52;8.02;;;;;;;30.30;42.25;100178.78;4970352;28;20495;-81
2023/06/28 08:12:55;;;;;;;19.73;8.45;;;;;;;30.45;42.03;100181.69;4969888;28;20070;-82
2023/06/28 08:15:21;;;;;;;13.43;6.82;;;;;;;30.43;42.46;100162.53;4970081;28;20038;-82
2023/06/28 08:17:47;;;;;;;10.00;7.38;;;;;;;30.54;42.03;100174.56;4969935;28;20092;-84
2023/06/28 08:20:12;;;;;;;15.82;7.22;;;;;;;30.51;42.09;100170.38;4969527;28;20094;-80
2023/06/28 08:22:38;;;;;;;23.77;7.38;;;;;;;30.46;41.97;100155.59;4970152;28;20407;-81
2023/06/28 08:25:04;;;;;;;18.17;7.25;;;;;;;30.57;42.54;100151.81;4969788;28;20058;-81
2023/06/28 08:27:29;;;;;;;13.23;7.50;;;;;;;30.70;42.16;100143.84;4969784;28;20023;-80
2023/06/28 08:29:55;;;;;;;11.25;6.30;;;;;;;30.82;42.11;100145.59;4969989;28;20038;-82
2023/06/28 08:32:22;;;;;;;21.10;8.15;;;;;;;30.95;41.54;100153.44;4969749;28;20051;-80
2023/06/28 08:34:47;;;;;;;16.88;7.15;;;;;;;30.90;41.68;100143.13;4972197;28;20114;-82
2023/06/28 08:37:13;;;;;;;13.32;7.45;;;;;;;30.96;41.35;100138.47;4971311;28;20475;-80
2023/06/28 08:39:38;;;;;;;13.07;6.85;;;;;;;31.26;41.17;100156.09;4970392;28;20037;-83
2023/06/28 08:42:04;;;;;;;17.58;7.95;;;;;;;31.47;40.77;100161.72;4971998;28;20380;-80
2023/06/28 08:44:32;;;;;;;14.48;6.68;;;;;;;31.50;40.43;100147.31;4972638;28;20033;-80
2023/06/28 08:46:58;;;;;;;26.48;8.55;;;;;;;31.62;39.78;100147.94;4971409;28;20499;-80
2023/06/28 08:49:25;;;;;;;18.80;7.25;;;;;;;31.82;39.72;100142.38;4971232;28;20054;-83
2023/06/28 08:51:52;;;;;;;19.85;7.10;;;;;;;32.03;39.10;100132.97;4970545;28;20077;-79
2023/06/28 08:54:19;;;;;;;20.65;8.20;;;;;;;32.13;39.48;100146.06;4953170;28;20043;-80
2023/06/28 08:56:46;;;;;;;16.20;7.25;;;;;;;32.09;39.43;100142.16;4969314;28;20106;-80
2023/06/28 08:59:11;;;;;;;14.15;8.40;;;;;;;32.18;39.47;100149.69;4970354;28;20031;-81
2023/06/28 09:01:38;;;;;;;20.48;8.18;;;;;;;32.13;39.91;100144.13;4970900;28;20528;-79
2023/06/28 09:04:04;;;;;;;12.23;7.13;;;;;;;32.07;39.89;100153.59;4971095;28;20462;-79
2023/06/28 09:06:30;;;;;;;12.82;7.65;;;;;;;31.96;40.60;100146.28;4971083;28;20031;-80
2023/06/28 09:08:57;;;;;;;20.52;8.02;;;;;;;31.92;39.85;100147.97;4971202;28;20033;-80
2023/06/28 09:11:22;;;;;;;19.27;7.90;;;;;;;31.84;40.09;100142.94;4972859;28;20653;-83
2023/06/28 09:13:48;;;;;;;14.80;7.65;;;;;;;31.71;40.27;100151.84;4993626;28;20126;-81
2023/06/28 09:16:14;;;;;;;21.50;7.57;;;;;;;31.66;39.74;100141.53;4996252;28;20034;-83
2023/06/28 09:18:39;;;;;;;11.38;7.00;;;;;;;31.57;39.64;100131.22;4996714;28;20037;-81
2023/06/28 09:21:05;;;;;;;24.98;9.02;;;;;;;31.51;39.77;100129.53;4980013;28;20066;-78
2023/06/28 09:23:33;;;;;;;17.00;7.30;;;;;;;31.48;40.15;100133.66;4978937;28;20170;-81
2023/06/28 09:25:59;;;;;;;30.40;8.32;;;;;;;31.51;40.08;100146.22;4960360;28;20117;-80
2023/06/28 09:28:35;;;;;;;17.73;7.57;;;;;;;31.45;40.06;100142.56;4976077;28;20102;-80
2023/06/28 09:31:06;;;;;;;13.45;7.97;;;;;;;31.27;40.13;100130.00;4974518;28;20023;-78
2023/06/28 09:33:32;;;;;;;19.63;7.80;;;;;;;31.35;40.45;100136.13;4974297;28;20031;-81
2023/06/28 09:35:59;;;;;;;25.00;8.57;;;;;;;31.35;40.66;100128.63;4974037;28;20046;-81
2023/06/28 09:38:26;;;;;;;16.80;7.80;;;;;;;31.37;39.78;100133.91;4974976;28;20035;-81
2023/06/28 09:40:59;;;;;;;16.20;8.52;;;;;;;31.34;39.90;100115.00;4975965;28;20031;-80
2023/06/28 09:43:31;;;;;;;18.17;9.40;;;;;;;31.55;40.12;100127.88;4975208;28;20395;-80
2023/06/28 09:45:56;;;;;;;19.52;7.68;;;;;;;31.72;39.90;100128.47;4974894;28;20487;-79
2023/06/28 09:48:26;;;;;;;29.65;12.00;;;;;;;31.68;39.50;100108.69;4975078;28;20102;-82
2023/06/28 09:50:52;;;;;;;15.35;7.22;;;;;;;31.66;39.57;100094.25;4974162;28;20030;-81
2023/06/28 09:53:19;;;;;;;25.98;6.90;;;;;;;31.83;38.28;100110.69;4973309;28;20177;-80
2023/06/28 09:55:52;;;;;;;12.88;7.10;;;;;;;31.85;37.53;100102.88;4973111;28;20031;-81
2023/06/28 09:58:21;;;;;;;17.90;7.82;;;;;;;31.90;37.80;100074.22;4972982;28;20062;-81
2023/06/28 10:00:48;;;;;;;12.48;7.03;;;;;;;32.19;37.87;100108.78;4973923;28;20495;-83
2023/06/28 10:03:15;;;;;;;21.77;7.88;;;;;;;32.31;37.84;100090.66;4973322;28;20058;-82
2023/06/28 10:05:43;;;;;;;16.90;7.60;;;;;;;32.47;36.91;100090.66;4973395;28;20110;-85
2023/06/28 10:08:14;;;;;;;19.38;6.45;;;;;;;32.55;36.57;100101.19;4973079;28;20037;-82
2023/06/28 10:10:41;;;;;;;14.13;8.23;;;;;;;32.51;36.50;100077.81;4973152;28;20039;-85
2023/06/28 10:13:11;;;;;;;10.70;6.40;;;;;;;32.60;36.16;100071.41;4972834;28;20015;-80
2023/06/28 10:15:48;;;;;;;28.58;6.85;;;;;;;32.81;35.67;100098.06;4973867;28;20030;-80
2023/06/28 10:18:15;;;;;;;8.63;5.82;;;;;;;32.89;34.64;100085.53;4947306;29;20511;-82
2023/06/28 10:20:41;;;;;;;9.75;6.43;;;;;;;32.91;34.33;100088.84;4966091;28;20057;-81
2023/06/28 10:23:10;;;;;;;18.55;6.60;;;;;;;32.91;33.57;100083.28;4973746;28;20109;-80
2023/06/28 10:25:35;;;;;;;19.63;7.18;;;;;;;32.98;34.11;100088.56;4971586;28;20126;-82
2023/06/28 10:28:01;;;;;;;18.17;5.90;;;;;;;32.98;34.68;100100.53;4973365;28;20027;-80
2023/06/28 10:30:27;;;;;;;11.95;7.43;;;;;;;32.94;36.07;100082.72;4973167;28;20415;-80
2023/06/28 10:32:53;;;;;;;12.85;6.82;;;;;;;32.92;36.39;100090.53;4973313;28;20027;-80
2023/06/28 10:35:20;;;;;;;16.60;7.78;;;;;;;32.85;36.24;100090.00;4974093;28;20054;-81
2023/06/28 10:37:46;;;;;;;11.70;7.03;;;;;;;32.72;36.27;100102.56;4975087;28;20042;-82
2023/06/28 10:40:12;;;;;;;15.25;7.13;;;;;;;32.66;36.41;100089.78;4974393;28;20479;-81
2023/06/28 10:42:39;;;;;;;10.57;7.25;;;;;;;32.65;36.52;100090.06;4974366;28;20034;-85
2023/06/28 10:45:05;;;;;;;18.50;8.50;;;;;;;32.49;37.22;100080.03;4978345;28;20019;-80
2023/06/28 10:47:33;;;;;;;15.48;7.65;;;;;;;32.49;37.22;100077.25;4975231;28;20436;-82
2023/06/28 10:50:05;;;;;;;22.38;7.38;;;;;;;32.57;36.96;100091.47;4972816;28;20054;-80
2023/06/28 10:52:31;;;;;;;22.48;8.25;;;;;;;32.43;37.14;100086.75;4972452;28;20050;-81
2023/06/28 10:54:56;;;;;;;18.52;7.45;;;;;;;32.42;37.60;100079.50;4972063;28;20404;-80
2023/06/28 10:57:35;;;;;;;20.48;9.13;;;;;;;32.62;37.14;100097.03;4972716;28;20019;-80
2023/06/28 11:00:05;;;;;;;14.77;7.00;;;;;;;32.66;36.97;100080.59;4972441;28;20121;-81
2023/06/28 11:03:04;;;;;;;10.88;6.85;;;;;;;32.84;36.81;100091.13;4972767;28;20034;-83
2023/06/28 11:05:44;;;;;;;17.63;8.15;;;;;;;32.97;36.47;100087.72;4972291;28;20038;-83
2023/06/28 11:08:17;;;;;;;15.55;7.10;;;;;;;33.03;36.19;100089.34;4973524;28;20030;-80
2023/06/28 11:10:45;;;;;;;9.60;6.95;;;;;;;32.98;34.59;100094.97;4973910;28;20133;-80
2023/06/28 11:13:12;;;;;;;11.80;7.22;;;;;;;33.05;34.15;100084.34;4971968;28;20026;-81